createdAt,value
2022-10-17T00:00:07.776Z,15.25
2022-10-17T00:00:40.013Z,12.57
2022-10-17T00:01:13.178Z,14.25
2022-10-17T00:01:45.163Z,12.25
2022-10-17T00:02:17.095Z,10.43
2022-10-17T00:02:49.042Z,10.77
2022-10-17T00:03:20.891Z,10.65
2022-10-17T00:03:52.805Z,9.57
2022-10-17T00:04:24.723Z,11.23
2022-10-17T00:04:56.618Z,12.88
2022-10-17T00:05:28.796Z,11.10
2022-10-17T00:06:06.004Z,10.52
2022-10-17T00:06:38.148Z,10.75
2022-10-17T00:07:10.085Z,9.93
2022-10-17T00:07:42.029Z,10.20
2022-10-17T00:08:16.603Z,9.60
2022-10-17T00:08:48.485Z,11.43
2022-10-17T00:09:20.401Z,9.75
2022-10-17T00:09:52.292Z,10.35
2022-10-17T00:10:24.539Z,11.77
2022-10-17T00:11:03.552Z,10.23
2022-10-17T00:11:35.641Z,11.77
2022-10-17T00:12:07.761Z,8.98
2022-10-17T00:12:39.619Z,8.77
2022-10-17T00:13:12.092Z,10.23
2022-10-17T00:13:44.780Z,9.80
2022-10-17T00:14:16.717Z,11.10
2022-10-17T00:14:48.594Z,14.80
2022-10-17T00:15:21.721Z,10.48
2022-10-17T00:15:54.051Z,8.75
2022-10-17T00:16:32.553Z,10.93
2022-10-17T00:17:04.456Z,8.98
2022-10-17T00:17:38.374Z,11.98
2022-10-17T00:18:10.269Z,10.80
2022-10-17T00:18:42.127Z,8.68
2022-10-17T00:19:13.976Z,8.50
2022-10-17T00:19:45.943Z,10.82
2022-10-17T00:20:17.966Z,11.77
2022-10-17T00:20:49.874Z,9.52
2022-10-17T00:21:22.642Z,11.77
2022-10-17T00:21:54.464Z,8.27
2022-10-17T00:22:27.564Z,10.10
2022-10-17T00:23:00.592Z,12.02
2022-10-17T00:23:33.914Z,9.13
2022-10-17T00:24:06.059Z,8.30
2022-10-17T00:24:37.938Z,8.55
2022-10-17T00:25:10.332Z,7.78
2022-10-17T00:25:42.357Z,9.75
2022-10-17T00:26:15.582Z,8.50
2022-10-17T00:26:47.485Z,10.07
2022-10-17T00:27:19.596Z,10.48
2022-10-17T00:27:51.480Z,8.70
2022-10-17T00:28:23.694Z,10.88
2022-10-17T00:28:56.118Z,9.13
2022-10-17T00:29:27.997Z,11.55
2022-10-17T00:29:59.847Z,7.60
2022-10-17T00:30:32.865Z,11.82
2022-10-17T00:31:06.685Z,8.93
2022-10-17T00:31:38.552Z,11.30
2022-10-17T00:32:10.411Z,9.18
2022-10-17T00:32:42.526Z,9.07
2022-10-17T00:33:14.376Z,9.80
2022-10-17T00:33:47.155Z,8.63
2022-10-17T00:34:20.526Z,9.68
2022-10-17T00:34:52.337Z,10.13
2022-10-17T00:35:24.184Z,7.85
2022-10-17T00:36:07.623Z,8.95
2022-10-17T00:36:40.088Z,9.85
2022-10-17T00:37:13.008Z,11.32
2022-10-17T00:37:44.841Z,11.30
2022-10-17T00:38:16.736Z,8.13
2022-10-17T00:38:53.403Z,12.48
2022-10-17T00:39:25.390Z,9.75
2022-10-17T00:39:57.256Z,7.07
2022-10-17T00:40:29.102Z,9.02
2022-10-17T00:41:00.952Z,9.10
2022-10-17T00:41:33.702Z,9.57
2022-10-17T00:42:06.363Z,9.77
2022-10-17T00:42:38.489Z,11.05
2022-10-17T00:43:17.830Z,7.90
2022-10-17T00:44:01.607Z,8.27
2022-10-17T00:44:33.385Z,11.15
2022-10-17T00:45:08.505Z,11.15
2022-10-17T00:45:40.480Z,10.65
2022-10-17T00:46:12.370Z,11.77
2022-10-17T00:46:44.995Z,8.55
2022-10-17T00:47:21.100Z,9.60
2022-10-17T00:48:06.533Z,8.98
2022-10-17T00:48:38.519Z,14.07
2022-10-17T00:49:12.627Z,9.25
2022-10-17T00:49:44.662Z,17.02
2022-10-17T00:50:17.137Z,12.98
2022-10-17T00:50:50.080Z,10.57
2022-10-17T00:51:29.610Z,11.55
2022-10-17T00:52:08.494Z,12.88
2022-10-17T00:52:41.112Z,11.82
2022-10-17T00:53:13.637Z,9.65
2022-10-17T00:53:45.849Z,10.20
2022-10-17T00:54:23.218Z,10.98
2022-10-17T00:55:00.089Z,10.93
2022-10-17T00:55:34.810Z,12.80
2022-10-17T00:56:07.455Z,9.90
2022-10-17T00:56:40.529Z,8.20
2022-10-17T00:57:12.892Z,10.32
2022-10-17T00:57:46.302Z,12.93
2022-10-17T00:58:19.039Z,11.18
2022-10-17T00:58:50.968Z,11.70
2022-10-17T00:59:24.811Z,10.52
2022-10-17T00:59:58.343Z,8.85
2022-10-17T01:00:30.906Z,8.00
2022-10-17T01:01:03.727Z,11.50
2022-10-17T01:01:36.126Z,10.30
2022-10-17T01:02:15.448Z,9.48
2022-10-17T01:02:47.574Z,11.23
2022-10-17T01:03:22.049Z,9.23
2022-10-17T01:03:53.921Z,15.52
2022-10-17T01:04:26.247Z,8.15
2022-10-17T01:04:59.567Z,11.15
2022-10-17T01:05:31.520Z,9.32
2022-10-17T01:06:03.574Z,7.40
2022-10-17T01:06:35.436Z,12.27
2022-10-17T01:07:07.456Z,8.15
2022-10-17T01:07:41.783Z,15.38
2022-10-17T01:08:14.154Z,9.57
2022-10-17T01:08:46.372Z,11.00
2022-10-17T01:09:18.597Z,10.77
2022-10-17T01:09:51.049Z,9.38
2022-10-17T01:10:29.866Z,10.43
2022-10-17T01:11:14.139Z,7.57
2022-10-17T01:11:53.622Z,10.23
2022-10-17T01:12:35.178Z,10.60
2022-10-17T01:13:13.632Z,10.82
2022-10-17T01:13:53.367Z,8.93
2022-10-17T01:14:42.802Z,11.12
2022-10-17T01:15:32.981Z,10.63
2022-10-17T01:16:18.728Z,9.98
2022-10-17T01:17:19.508Z,10.45
2022-10-17T01:18:14.819Z,9.52
2022-10-17T01:18:59.699Z,7.03
2022-10-17T01:19:57.929Z,9.88
2022-10-17T01:20:38.768Z,11.27
2022-10-17T01:21:36.677Z,13.60
2022-10-17T01:22:17.497Z,13.38
2022-10-17T01:23:11.055Z,12.98
2022-10-17T01:24:04.611Z,13.25
2022-10-17T01:25:05.093Z,10.75
2022-10-17T01:25:56.184Z,7.75
2022-10-17T01:26:52.477Z,13.50
2022-10-17T01:27:42.777Z,8.45
2022-10-17T01:29:31.841Z,7.80
2022-10-17T01:30:26.264Z,7.57
2022-10-17T01:31:16.008Z,8.60
2022-10-17T01:31:51.235Z,9.48
2022-10-17T01:32:37.260Z,9.82
2022-10-17T01:33:31.309Z,8.88
2022-10-17T01:34:12.833Z,7.12
2022-10-17T01:35:01.616Z,9.30
2022-10-17T01:35:42.312Z,9.43
2022-10-17T01:36:23.163Z,7.93
2022-10-17T01:36:58.155Z,8.13
2022-10-17T01:37:37.916Z,8.48
2022-10-17T01:38:14.690Z,8.10
2022-10-17T01:38:51.689Z,9.10
2022-10-17T01:39:45.635Z,10.52
2022-10-17T01:40:27.842Z,11.35
2022-10-17T01:41:07.695Z,9.43
2022-10-17T01:42:02.287Z,10.82
2022-10-17T01:42:42.429Z,12.48
2022-10-17T01:43:34.819Z,11.05
2022-10-17T01:44:19.678Z,10.77
2022-10-17T01:45:03.862Z,9.13
2022-10-17T01:45:50.712Z,9.60
2022-10-17T01:46:30.206Z,10.05
2022-10-17T01:47:13.612Z,8.88
2022-10-17T01:47:47.870Z,8.90
2022-10-17T01:48:25.751Z,7.60
2022-10-17T01:49:01.791Z,7.37
2022-10-17T01:49:37.566Z,9.98
2022-10-17T01:50:17.038Z,8.85
2022-10-17T01:50:53.715Z,11.50
2022-10-17T01:51:33.345Z,8.98
2022-10-17T01:52:11.684Z,9.35
2022-10-17T01:52:50.759Z,8.20
2022-10-17T01:53:38.728Z,9.68
2022-10-17T01:54:23.785Z,8.40
2022-10-17T01:55:26.284Z,9.20
2022-10-17T01:56:03.078Z,8.40
2022-10-17T01:56:36.584Z,9.35
2022-10-17T01:57:14.115Z,8.38
2022-10-17T01:57:57.861Z,10.13
2022-10-17T01:58:38.340Z,10.23
2022-10-17T01:59:22.425Z,8.80
2022-10-17T01:59:56.588Z,8.60
2022-10-17T02:00:30.056Z,8.45
2022-10-17T02:01:06.319Z,9.85
2022-10-17T02:01:41.563Z,13.93
2022-10-17T02:02:15.135Z,10.65
2022-10-17T02:02:49.987Z,9.35
2022-10-17T02:03:24.355Z,9.88
2022-10-17T02:03:58.018Z,8.48
2022-10-17T02:04:30.092Z,7.12
2022-10-17T02:05:03.918Z,8.90
2022-10-17T02:05:39.978Z,12.73
2022-10-17T02:06:12.163Z,9.20
2022-10-17T02:06:44.149Z,8.77
2022-10-17T02:07:16.365Z,9.20
2022-10-17T02:07:48.224Z,7.95
2022-10-17T02:08:42.002Z,8.65
2022-10-17T02:09:27.228Z,8.68
2022-10-17T02:10:02.717Z,9.00
2022-10-17T02:11:06.861Z,12.45
2022-10-17T02:11:40.943Z,9.55
2022-10-17T02:12:44.044Z,9.07
2022-10-17T02:13:21.908Z,8.15
2022-10-17T02:13:53.725Z,8.35
2022-10-17T02:14:47.184Z,9.45
2022-10-17T02:15:37.659Z,12.10
2022-10-17T02:16:29.422Z,10.35
2022-10-17T02:17:28.266Z,8.13
2022-10-17T02:18:02.964Z,10.00
2022-10-17T02:18:53.230Z,8.60
2022-10-17T02:20:05.337Z,10.25
2022-10-17T02:20:52.151Z,7.45
2022-10-17T02:22:00.355Z,10.07
2022-10-17T02:22:46.286Z,7.78
2022-10-17T02:23:37.009Z,8.07
2022-10-17T02:24:18.026Z,9.40
2022-10-17T02:24:55.041Z,13.00
2022-10-17T02:25:35.003Z,10.63
2022-10-17T02:26:52.427Z,8.90
2022-10-17T02:27:24.244Z,12.77
2022-10-17T02:28:11.855Z,11.45
2022-10-17T02:28:51.699Z,10.10
2022-10-17T02:29:31.318Z,13.27
2022-10-17T02:30:14.182Z,10.55
2022-10-17T02:30:49.673Z,9.18
2022-10-17T02:31:30.436Z,9.07
2022-10-17T02:32:50.325Z,8.02
2022-10-17T02:33:31.815Z,9.80
2022-10-17T02:34:13.242Z,6.57
2022-10-17T02:34:52.098Z,9.00
2022-10-17T02:35:28.371Z,9.77
2022-10-17T02:36:06.248Z,11.65
2022-10-17T02:36:47.774Z,13.77
2022-10-17T02:37:24.707Z,9.93
2022-10-17T02:37:58.348Z,8.48
2022-10-17T02:38:31.823Z,9.13
2022-10-17T02:39:06.144Z,7.87
2022-10-17T02:39:41.118Z,11.27
2022-10-17T02:40:14.836Z,9.50
2022-10-17T02:40:48.393Z,11.05
2022-10-17T02:41:22.958Z,13.18
2022-10-17T02:42:00.220Z,11.07
2022-10-17T02:42:33.151Z,10.15
2022-10-17T02:43:05.469Z,12.82
2022-10-17T02:43:39.108Z,8.40
2022-10-17T02:44:11.748Z,11.02
2022-10-17T02:44:46.923Z,9.32
2022-10-17T02:45:19.630Z,9.93
2022-10-17T02:45:52.698Z,11.98
2022-10-17T02:46:27.380Z,8.25
2022-10-17T02:47:14.642Z,11.27
2022-10-17T02:48:04.499Z,10.65
2022-10-17T02:48:47.308Z,6.87
2022-10-17T02:49:28.180Z,8.35
2022-10-17T02:50:00.148Z,10.13
2022-10-17T02:51:02.082Z,12.35
2022-10-17T02:52:02.030Z,9.75
2022-10-17T02:52:37.020Z,10.73
2022-10-17T02:53:17.608Z,9.80
2022-10-17T02:54:14.839Z,10.27
2022-10-17T02:54:54.691Z,11.02
2022-10-17T02:55:33.484Z,7.85
2022-10-17T02:56:13.306Z,10.10
2022-10-17T02:56:56.585Z,9.35
2022-10-17T02:57:39.471Z,8.75
2022-10-17T02:58:18.978Z,10.07
2022-10-17T02:58:56.312Z,8.20
2022-10-17T02:59:30.830Z,8.55
2022-10-17T03:00:06.784Z,7.62
2022-10-17T03:00:40.206Z,8.80
2022-10-17T03:01:13.758Z,10.23
2022-10-17T03:01:45.952Z,10.60
2022-10-17T03:02:18.349Z,12.80
2022-10-17T03:02:52.771Z,9.25
2022-10-17T03:03:29.135Z,10.48
2022-10-17T03:04:07.768Z,10.18
2022-10-17T03:04:43.866Z,9.82
2022-10-17T03:05:28.891Z,12.55
2022-10-17T03:06:00.884Z,9.93
2022-10-17T03:06:32.804Z,13.02
2022-10-17T03:07:04.836Z,10.20
2022-10-17T03:07:36.702Z,10.18
2022-10-17T03:08:08.579Z,14.02
2022-10-17T03:08:40.469Z,9.40
2022-10-17T03:09:12.602Z,11.25
2022-10-17T03:09:45.755Z,9.75
2022-10-17T03:10:19.415Z,9.55
2022-10-17T03:10:52.557Z,11.23
2022-10-17T03:11:25.598Z,9.73
2022-10-17T03:11:57.499Z,11.85
2022-10-17T03:12:29.547Z,8.82
2022-10-17T03:13:01.483Z,10.40
2022-10-17T03:13:36.234Z,11.38
2022-10-17T03:14:10.976Z,9.35
2022-10-17T03:14:42.885Z,14.85
2022-10-17T03:15:15.132Z,9.88
2022-10-17T03:15:47.902Z,11.70
2022-10-17T03:16:19.818Z,11.12
2022-10-17T03:16:51.767Z,12.32
2022-10-17T03:17:24.431Z,9.82
2022-10-17T03:17:56.346Z,12.50
2022-10-17T03:18:28.524Z,10.75
2022-10-17T03:19:00.877Z,9.27
2022-10-17T03:19:32.866Z,8.75
2022-10-17T03:20:06.463Z,10.32
2022-10-17T03:20:38.367Z,10.90
2022-10-17T03:21:10.554Z,10.45
2022-10-17T03:21:42.535Z,11.93
2022-10-17T03:22:14.398Z,11.90
2022-10-17T03:22:46.850Z,10.20
2022-10-17T03:23:18.692Z,9.75
2022-10-17T03:23:50.614Z,15.30
2022-10-17T03:24:22.862Z,10.88
2022-10-17T03:24:55.630Z,9.50
2022-10-17T03:25:28.173Z,8.85
2022-10-17T03:26:04.473Z,12.02
2022-10-17T03:26:36.845Z,12.90
2022-10-17T03:27:08.772Z,12.23
2022-10-17T03:27:41.862Z,11.77
2022-10-17T03:28:14.107Z,10.07
2022-10-17T03:28:47.630Z,17.50
2022-10-17T03:29:21.632Z,14.50
2022-10-17T03:29:53.615Z,11.68
2022-10-17T03:30:25.834Z,9.20
2022-10-17T03:30:58.358Z,11.25
2022-10-17T03:31:30.277Z,11.35
2022-10-17T03:32:02.707Z,15.55
2022-10-17T03:32:34.775Z,10.05
2022-10-17T03:33:06.582Z,13.62
2022-10-17T03:33:38.619Z,10.10
2022-10-17T03:34:10.482Z,13.10
2022-10-17T03:34:42.436Z,10.60
2022-10-17T03:35:15.129Z,11.30
2022-10-17T03:36:22.895Z,13.43
2022-10-17T03:36:55.198Z,10.63
2022-10-17T03:37:28.366Z,15.10
2022-10-17T03:38:00.641Z,14.73
2022-10-17T03:38:32.941Z,13.73
2022-10-17T03:39:04.966Z,11.88
2022-10-17T03:39:37.076Z,11.73
2022-10-17T03:40:09.458Z,10.43
2022-10-17T03:40:41.399Z,17.17
2022-10-17T03:41:14.557Z,14.90
2022-10-17T03:41:46.959Z,12.85
2022-10-17T03:42:19.617Z,9.65
2022-10-17T03:42:52.043Z,12.55
2022-10-17T03:43:23.967Z,12.15
2022-10-17T03:43:55.807Z,11.85
2022-10-17T03:44:28.201Z,16.67
2022-10-17T03:45:00.114Z,20.25
2022-10-17T03:45:32.633Z,13.52
2022-10-17T03:46:04.951Z,12.75
2022-10-17T03:46:37.252Z,16.98
2022-10-17T03:47:11.930Z,15.88
2022-10-17T03:47:46.069Z,12.90
2022-10-17T03:48:18.944Z,14.27
2022-10-17T03:48:50.955Z,12.63
2022-10-17T03:49:22.805Z,12.82
2022-10-17T03:49:54.737Z,12.95
2022-10-17T03:50:26.730Z,16.08
2022-10-17T03:51:03.489Z,11.98
2022-10-17T03:51:37.556Z,15.88
2022-10-17T03:52:13.981Z,12.82
2022-10-17T03:52:49.593Z,14.32
2022-10-17T03:53:21.850Z,12.63
2022-10-17T03:53:53.933Z,14.27
2022-10-17T03:54:26.765Z,13.85
2022-10-17T03:54:58.826Z,15.73
2022-10-17T03:55:31.415Z,15.48
2022-10-17T03:56:10.229Z,11.90
2022-10-17T03:56:43.885Z,13.85
2022-10-17T03:57:16.341Z,11.10
2022-10-17T03:57:48.658Z,16.25
2022-10-17T03:58:21.115Z,11.82
2022-10-17T03:58:55.368Z,13.02
2022-10-17T03:59:27.425Z,11.82
2022-10-17T03:59:59.958Z,17.20
2022-10-17T04:00:32.453Z,17.05
2022-10-17T04:01:06.466Z,14.65
2022-10-17T04:01:38.357Z,14.38
2022-10-17T04:02:10.303Z,13.70
2022-10-17T04:02:42.452Z,18.15
2022-10-17T04:03:17.305Z,14.45
2022-10-17T04:03:54.324Z,17.45
2022-10-17T04:04:26.383Z,12.55
2022-10-17T04:04:58.247Z,10.77
2022-10-17T04:05:30.176Z,14.80
2022-10-17T04:06:03.398Z,14.05
2022-10-17T04:06:37.398Z,14.35
2022-10-17T04:07:09.522Z,18.62
2022-10-17T04:07:41.945Z,14.60
2022-10-17T04:08:14.574Z,13.90
2022-10-17T04:08:50.378Z,13.80
2022-10-17T04:09:22.693Z,16.42
2022-10-17T04:09:54.963Z,12.32
2022-10-17T04:10:26.994Z,13.82
2022-10-17T04:11:00.363Z,21.33
2022-10-17T04:11:32.338Z,14.63
2022-10-17T04:12:04.834Z,16.33
2022-10-17T04:12:37.794Z,18.23
2022-10-17T04:13:10.343Z,15.05
2022-10-17T04:13:43.161Z,15.05
2022-10-17T04:14:15.065Z,13.15
2022-10-17T04:14:47.154Z,16.52
2022-10-17T04:15:19.374Z,13.70
2022-10-17T04:16:13.951Z,10.25
2022-10-17T04:16:46.310Z,21.73
2022-10-17T04:17:18.919Z,22.98
2022-10-17T04:17:51.024Z,13.85
2022-10-17T04:18:22.978Z,14.65
2022-10-17T04:18:56.685Z,14.00
2022-10-17T04:19:29.322Z,15.25
2022-10-17T04:20:01.340Z,17.15
2022-10-17T04:20:35.512Z,15.63
2022-10-17T04:21:08.205Z,16.60
2022-10-17T04:21:40.425Z,16.30
2022-10-17T04:22:12.409Z,22.70
2022-10-17T04:22:44.584Z,29.75
2022-10-17T04:23:17.942Z,12.15
2022-10-17T04:23:57.929Z,17.62
2022-10-17T04:24:31.653Z,14.50
2022-10-17T04:25:04.457Z,14.82
2022-10-17T04:25:37.474Z,18.12
2022-10-17T04:26:09.407Z,17.10
2022-10-17T04:26:41.306Z,11.60
2022-10-17T04:27:13.342Z,16.25
2022-10-17T04:27:45.872Z,18.75
2022-10-17T04:28:18.201Z,13.62
2022-10-17T04:28:51.045Z,15.05
2022-10-17T04:29:24.050Z,16.10
2022-10-17T04:29:56.261Z,14.80
2022-10-17T04:30:28.969Z,14.27
2022-10-17T04:31:07.314Z,17.65
2022-10-17T04:31:40.389Z,15.48
2022-10-17T04:32:12.671Z,14.20
2022-10-17T04:32:44.799Z,15.00
2022-10-17T04:33:17.300Z,14.95
2022-10-17T04:33:50.584Z,16.02
2022-10-17T04:34:22.475Z,14.73
2022-10-17T04:34:54.335Z,14.30
2022-10-17T04:35:26.559Z,16.05
2022-10-17T04:36:14.138Z,14.50
2022-10-17T04:36:47.190Z,13.18
2022-10-17T04:37:19.284Z,16.42
2022-10-17T04:37:51.402Z,14.25
2022-10-17T04:38:27.725Z,20.90
2022-10-17T04:39:05.898Z,15.85
2022-10-17T04:39:37.876Z,20.52
2022-10-17T04:40:10.690Z,11.75
2022-10-17T04:40:42.817Z,12.98
2022-10-17T04:41:17.517Z,12.50
2022-10-17T04:41:49.467Z,11.23
2022-10-17T04:42:21.500Z,15.70
2022-10-17T04:42:53.614Z,16.77
2022-10-17T04:43:26.433Z,14.48
2022-10-17T04:43:58.313Z,13.93
2022-10-17T04:44:31.442Z,14.63
2022-10-17T04:45:04.379Z,12.40
2022-10-17T04:45:36.275Z,20.65
2022-10-17T04:46:11.022Z,19.80
2022-10-17T04:46:44.118Z,15.13
2022-10-17T04:47:15.986Z,14.05
2022-10-17T04:47:48.014Z,17.50
2022-10-17T04:48:20.306Z,13.82
2022-10-17T04:48:54.167Z,14.93
2022-10-17T04:49:27.071Z,14.13
2022-10-17T04:50:00.044Z,19.00
2022-10-17T04:50:31.922Z,14.07
2022-10-17T04:51:10.880Z,12.52
2022-10-17T04:51:43.374Z,15.90
2022-10-17T04:52:15.582Z,17.08
2022-10-17T04:52:47.483Z,17.25
2022-10-17T04:53:20.191Z,12.50
2022-10-17T04:53:52.440Z,14.35
2022-10-17T04:54:24.357Z,15.07
2022-10-17T04:54:57.090Z,14.98
2022-10-17T04:55:28.966Z,15.82
2022-10-17T04:56:01.745Z,13.80
2022-10-17T04:56:33.993Z,17.58
2022-10-17T04:57:05.897Z,14.40
2022-10-17T04:57:38.023Z,16.30
2022-10-17T04:58:10.611Z,21.45
2022-10-17T04:58:43.688Z,13.93
2022-10-17T04:59:15.929Z,26.48
2022-10-17T04:59:48.041Z,14.55
2022-10-17T05:00:20.416Z,26.02
2022-10-17T05:00:54.281Z,23.85
2022-10-17T05:01:26.943Z,17.77
2022-10-17T05:01:58.875Z,24.67
2022-10-17T05:02:31.043Z,18.27
2022-10-17T05:03:05.514Z,24.10
2022-10-17T05:03:37.890Z,22.67
2022-10-17T05:04:10.026Z,17.42
2022-10-17T05:04:42.363Z,20.25
2022-10-17T05:05:14.474Z,15.27
2022-10-17T05:05:48.185Z,20.80
2022-10-17T05:06:22.642Z,18.37
2022-10-17T05:06:56.614Z,17.73
2022-10-17T05:07:29.714Z,18.10
2022-10-17T05:08:02.065Z,17.67
2022-10-17T05:08:34.639Z,19.90
2022-10-17T05:09:06.792Z,19.23
2022-10-17T05:09:38.725Z,21.40
2022-10-17T05:10:11.031Z,16.20
2022-10-17T05:10:46.411Z,22.25
2022-10-17T05:11:21.242Z,19.87
2022-10-17T05:11:53.240Z,17.08
2022-10-17T05:12:25.787Z,26.40
2022-10-17T05:12:59.077Z,14.50
2022-10-17T05:13:31.751Z,17.35
2022-10-17T05:14:03.669Z,21.62
2022-10-17T05:14:35.938Z,20.35
2022-10-17T05:15:08.484Z,20.25
2022-10-17T05:15:40.739Z,19.92
2022-10-17T05:16:12.800Z,20.33
2022-10-17T05:16:44.853Z,18.27
2022-10-17T05:17:17.221Z,25.45
2022-10-17T05:17:49.323Z,30.15
2022-10-17T05:18:21.736Z,25.48
2022-10-17T05:18:55.710Z,22.65
2022-10-17T05:19:27.609Z,21.87
2022-10-17T05:19:59.569Z,18.90
2022-10-17T05:20:31.958Z,30.85
2022-10-17T05:21:05.005Z,22.37
2022-10-17T05:21:38.688Z,16.55
2022-10-17T05:22:10.872Z,29.20
2022-10-17T05:22:42.797Z,23.95
2022-10-17T05:23:15.095Z,29.67
2022-10-17T05:23:47.549Z,28.45
2022-10-17T05:24:19.745Z,27.15
2022-10-17T05:24:53.386Z,27.10
2022-10-17T05:25:25.228Z,29.60
2022-10-17T05:25:57.317Z,29.90
2022-10-17T05:26:29.547Z,33.88
2022-10-17T05:27:01.618Z,29.05
2022-10-17T05:27:33.691Z,28.60
2022-10-17T05:28:06.553Z,35.03
2022-10-17T05:28:38.527Z,27.13
2022-10-17T05:29:11.063Z,34.00
2022-10-17T05:29:43.218Z,30.40
2022-10-17T05:30:18.210Z,24.52
2022-10-17T05:30:50.434Z,26.52
2022-10-17T05:31:22.540Z,35.60
2022-10-17T05:31:54.720Z,28.10
2022-10-17T05:32:26.907Z,32.90
2022-10-17T05:32:59.038Z,27.73
2022-10-17T05:33:31.714Z,32.80
2022-10-17T05:34:04.388Z,28.52
2022-10-17T05:34:36.835Z,34.80
2022-10-17T05:35:08.811Z,33.08
2022-10-17T05:35:40.992Z,26.85
2022-10-17T05:36:12.906Z,30.25
2022-10-17T05:36:45.076Z,36.50
2022-10-17T05:37:18.796Z,33.08
2022-10-17T05:37:50.994Z,29.80
2022-10-17T05:38:23.609Z,35.10
2022-10-17T05:38:55.550Z,43.13
2022-10-17T05:39:27.552Z,29.98
2022-10-17T05:40:01.231Z,32.22
2022-10-17T05:40:34.743Z,30.25
2022-10-17T05:41:07.918Z,29.15
2022-10-17T05:41:39.810Z,30.88
2022-10-17T05:42:11.815Z,38.28
2022-10-17T05:42:48.066Z,41.60
2022-10-17T05:43:20.214Z,30.42
2022-10-17T05:43:52.452Z,28.75
2022-10-17T05:44:25.134Z,29.60
2022-10-17T05:44:57.649Z,31.67
2022-10-17T05:45:30.915Z,33.08
2022-10-17T05:46:06.757Z,31.80
2022-10-17T05:46:39.301Z,32.97
2022-10-17T05:47:11.429Z,36.42
2022-10-17T05:47:43.684Z,35.75
2022-10-17T05:48:15.711Z,31.62
2022-10-17T05:48:47.616Z,32.55
2022-10-17T05:49:32.585Z,35.60
2022-10-17T05:50:12.525Z,35.97
2022-10-17T05:50:46.443Z,33.58
2022-10-17T05:51:18.948Z,25.17
2022-10-17T05:51:51.720Z,33.40
2022-10-17T05:52:23.668Z,26.87
2022-10-17T05:52:56.170Z,31.02
2022-10-17T05:53:32.123Z,49.67
2022-10-17T05:54:07.004Z,26.98
2022-10-17T05:54:40.252Z,34.33
2022-10-17T05:55:12.240Z,36.33
2022-10-17T05:55:44.440Z,33.35
2022-10-17T05:56:16.267Z,32.08
2022-10-17T05:56:52.875Z,27.55
2022-10-17T05:57:26.599Z,33.22
2022-10-17T05:58:00.649Z,31.60
2022-10-17T05:58:52.320Z,24.87
2022-10-17T05:59:27.976Z,32.03
2022-10-17T06:00:00.941Z,28.55
2022-10-17T06:00:34.240Z,29.87
2022-10-17T06:01:09.382Z,26.85
2022-10-17T06:01:44.051Z,24.48
2022-10-17T06:02:16.061Z,22.00
2022-10-17T06:02:48.198Z,28.73
2022-10-17T06:03:20.447Z,33.53
2022-10-17T06:03:52.980Z,38.95
2022-10-17T06:04:27.764Z,47.58
2022-10-17T06:04:59.998Z,55.30
2022-10-17T06:05:35.606Z,113.37
2022-10-17T06:06:10.573Z,48.78
2022-10-17T06:06:43.473Z,44.15
2022-10-17T06:07:16.214Z,33.50
2022-10-17T06:07:50.152Z,28.17
2022-10-17T06:08:22.964Z,25.55
2022-10-17T06:08:55.440Z,25.75
2022-10-17T06:09:28.429Z,21.37
2022-10-17T06:10:01.319Z,33.25
2022-10-17T06:10:33.451Z,26.83
2022-10-17T06:11:09.170Z,25.10
2022-10-17T06:11:42.998Z,24.10
2022-10-17T06:12:16.137Z,21.10
2022-10-17T06:12:48.522Z,36.63
2022-10-17T06:13:20.469Z,32.75
2022-10-17T06:13:52.800Z,23.90
2022-10-17T06:14:25.119Z,26.25
2022-10-17T06:14:57.219Z,26.15
2022-10-17T06:15:29.061Z,34.33
2022-10-17T06:16:01.170Z,30.17
2022-10-17T06:16:33.684Z,30.30
2022-10-17T06:17:05.893Z,24.00
2022-10-17T06:17:37.766Z,25.40
2022-10-17T06:18:11.124Z,25.25
2022-10-17T06:18:43.300Z,29.95
2022-10-17T06:19:16.018Z,29.87
2022-10-17T06:19:47.915Z,20.35
2022-10-17T06:20:20.192Z,26.75
2022-10-17T06:20:53.138Z,22.80
2022-10-17T06:21:27.194Z,22.98
2022-10-17T06:21:59.392Z,29.70
2022-10-17T06:22:32.212Z,32.53
2022-10-17T06:23:06.487Z,27.17
2022-10-17T06:23:40.036Z,24.40
2022-10-17T06:24:12.211Z,35.28
2022-10-17T06:24:44.816Z,24.45
2022-10-17T06:25:17.116Z,25.42
2022-10-17T06:25:48.966Z,30.83
2022-10-17T06:26:21.081Z,26.92
2022-10-17T06:26:53.370Z,21.25
2022-10-17T06:27:25.695Z,31.73
2022-10-17T06:27:57.884Z,24.83
2022-10-17T06:28:30.086Z,28.52
2022-10-17T06:29:02.444Z,31.00
2022-10-17T06:29:34.759Z,38.05
2022-10-17T06:30:07.148Z,33.13
2022-10-17T06:30:40.584Z,32.25
2022-10-17T06:31:16.695Z,28.87
2022-10-17T06:31:48.592Z,33.45
2022-10-17T06:32:21.081Z,31.35
2022-10-17T06:32:53.724Z,23.83
2022-10-17T06:33:26.239Z,35.13
2022-10-17T06:33:58.214Z,26.05
2022-10-17T06:34:30.114Z,29.90
2022-10-17T06:35:02.093Z,25.27
2022-10-17T06:35:35.181Z,24.67
2022-10-17T06:36:08.566Z,25.40
2022-10-17T06:36:40.529Z,34.67
2022-10-17T06:37:12.845Z,27.87
2022-10-17T06:37:45.137Z,29.70
2022-10-17T06:38:16.994Z,27.40
2022-10-17T06:38:49.350Z,30.80
2022-10-17T06:39:21.884Z,35.00
2022-10-17T06:39:54.557Z,25.58
2022-10-17T06:40:26.811Z,25.90
2022-10-17T06:41:14.542Z,30.95
2022-10-17T06:41:46.389Z,24.73
2022-10-17T06:42:22.131Z,20.42
2022-10-17T06:42:54.289Z,21.85
2022-10-17T06:43:28.192Z,24.17
2022-10-17T06:44:00.760Z,16.08
2022-10-17T06:44:34.557Z,22.00
2022-10-17T06:45:12.180Z,15.73
2022-10-17T06:45:47.661Z,18.55
2022-10-17T06:46:20.068Z,17.92
2022-10-17T06:46:54.727Z,18.92
2022-10-17T06:47:27.102Z,21.30
2022-10-17T06:47:59.501Z,12.85
2022-10-17T06:48:33.098Z,15.85
2022-10-17T06:49:10.609Z,14.02
2022-10-17T06:49:42.826Z,13.40
2022-10-17T06:50:15.387Z,10.55
2022-10-17T06:50:47.566Z,17.83
2022-10-17T06:51:20.206Z,14.18
2022-10-17T06:51:52.308Z,13.77
2022-10-17T06:52:24.444Z,13.20
2022-10-17T06:52:58.080Z,13.98
2022-10-17T06:53:42.592Z,16.30
2022-10-17T06:54:14.839Z,14.68
2022-10-17T06:54:46.994Z,15.57
2022-10-17T06:55:22.606Z,15.85
2022-10-17T06:55:58.160Z,18.80
2022-10-17T06:56:30.478Z,12.52
2022-10-17T06:57:02.984Z,15.32
2022-10-17T06:57:34.967Z,15.25
2022-10-17T06:58:06.878Z,19.27
2022-10-17T06:58:40.114Z,16.87
2022-10-17T06:59:12.199Z,15.65
2022-10-17T06:59:44.645Z,17.98
2022-10-17T07:00:17.303Z,13.75
2022-10-17T07:00:50.408Z,18.40
2022-10-17T07:01:22.923Z,20.27
2022-10-17T07:01:55.470Z,15.80
2022-10-17T07:02:28.736Z,14.07
2022-10-17T07:03:01.851Z,15.85
2022-10-17T07:03:34.205Z,14.60
2022-10-17T07:04:06.146Z,13.82
2022-10-17T07:04:38.828Z,17.17
2022-10-17T07:05:11.096Z,13.68
2022-10-17T07:05:42.971Z,13.85
2022-10-17T07:06:14.854Z,14.63
2022-10-17T07:06:47.012Z,12.07
2022-10-17T07:07:19.715Z,12.20
2022-10-17T07:07:52.033Z,17.62
2022-10-17T07:08:24.314Z,16.35
2022-10-17T07:08:56.302Z,13.10
2022-10-17T07:09:28.360Z,14.48
2022-10-17T07:10:03.892Z,16.08
2022-10-17T07:10:38.562Z,16.35
2022-10-17T07:11:13.537Z,19.42
2022-10-17T07:11:45.507Z,14.30
2022-10-17T07:12:21.006Z,13.50
2022-10-17T07:12:52.818Z,19.15
2022-10-17T07:13:25.594Z,12.50
2022-10-17T07:13:57.451Z,13.98
2022-10-17T07:14:32.165Z,15.75
2022-10-17T07:15:05.364Z,15.93
2022-10-17T07:15:38.217Z,14.60
2022-10-17T07:16:11.224Z,13.75
2022-10-17T07:16:43.254Z,14.90
2022-10-17T07:17:16.271Z,15.98
2022-10-17T07:17:50.827Z,14.95
2022-10-17T07:18:22.981Z,16.00
2022-10-17T07:18:55.466Z,16.55
2022-10-17T07:19:27.678Z,14.93
2022-10-17T07:19:59.536Z,14.95
2022-10-17T07:20:32.322Z,13.13
2022-10-17T07:21:05.481Z,15.70
2022-10-17T07:21:39.218Z,13.18
2022-10-17T07:22:12.958Z,15.98
2022-10-17T07:22:46.118Z,15.07
2022-10-17T07:23:17.956Z,18.10
2022-10-17T07:23:50.119Z,18.60
2022-10-17T07:24:22.067Z,18.00
2022-10-17T07:24:54.428Z,17.40
2022-10-17T07:25:28.489Z,14.27
2022-10-17T07:26:02.333Z,18.45
2022-10-17T07:26:34.764Z,15.50
2022-10-17T07:27:06.726Z,18.50
2022-10-17T07:27:38.646Z,15.80
2022-10-17T07:28:10.542Z,15.60
2022-10-17T07:28:45.092Z,19.48
2022-10-17T07:29:22.110Z,21.17
2022-10-17T07:29:54.050Z,16.58
2022-10-17T07:30:26.051Z,12.25
2022-10-17T07:31:13.145Z,18.55
2022-10-17T07:31:48.699Z,16.87
2022-10-17T07:32:20.663Z,13.95
2022-10-17T07:32:54.386Z,15.35
2022-10-17T07:33:26.296Z,16.00
2022-10-17T07:34:00.136Z,16.48
2022-10-17T07:34:33.345Z,20.42
2022-10-17T07:35:06.123Z,14.77
2022-10-17T07:35:40.931Z,14.45
2022-10-17T07:36:13.573Z,15.40